Flight Track Log - Related Links

Times and Time Zones

All times are in EDT time to prevent confusion due to time zone crossing. See the SWA1181 flight status page for this flight to view local times or setup timezone preferences in your user account.

Time Position Orientation Groundspeed Altitude Reporting Facility
EDT Latitude Longitude Course Direction KTS MPH feet Rate Location/Type
Sat 12:21:19 PM 35.0833 -89.9833 360° North 193 222 2,600  Level KMEM
Sat 12:22:14 PM 35.1317 -89.9711 12° North 197 227 4,500 2,667 Climbing Memphis Center
Sat 12:23:16 PM 35.2028 -89.9511 13° North 242 278 7,800 3,048 Climbing Memphis Center
Sat 12:24:18 PM 35.2194 -89.8619 77° East 263 303 10,800 3,290 Climbing Memphis Center
Sat 12:25:20 PM 35.2217 -89.7250 89° East 317 365 14,600 3,290 Climbing Memphis Center
Sat 12:26:00 PM 35.2156 -89.1855 59° Northeast  Level FlightAware Approximate
Sat 12:26:22 PM 35.2247 -89.6017 88° East 348 400 17,600  Level Memphis Center
Sat 12:27:24 PM 35.2278 -89.4708 88° East 372 428 20,100 2,585 Climbing Memphis Center
Sat 12:28:25 PM 35.2303 -89.3358 89° East 389 448 22,900 1,951 Climbing Memphis Center
Sat 12:29:27 PM 35.2331 -89.1992 89° East 396 456 24,100 1,500 Climbing Memphis Center
Sat 12:30:29 PM 35.2642 -89.0650 74° East 411 473 26,000 1,887 Climbing Memphis Center
Sat 12:31:31 PM 35.3108 -88.9328 67° East 420 483 28,000 1,902 Climbing Memphis Center
Sat 12:32:32 PM 35.3628 -88.8008 64° Northeast 425 489 29,900 2,000 Climbing Memphis Center
Sat 12:33:34 PM 35.4211 -88.6456 65° Northeast 435 501 32,100 1,984 Climbing Memphis Center
Sat 12:34:36 PM 35.4708 -88.5117 65° Northeast 435 501 34,000 1,500 Climbing Memphis Center
Sat 12:35:38 PM 35.5214 -88.3789 65° Northeast 435 501 35,200 1,220 Climbing Memphis Center
Sat 12:36:39 PM 35.5714 -88.2447 65° Northeast 435 501 36,500 1,317 Climbing Memphis Center
Sat 12:37:41 PM 35.6250 -88.0992 66° East 434 499 37,900 1,210 Climbing Memphis Center
Sat 12:38:43 PM 35.6753 -87.9622 66° East 434 499 39,000 532 Climbing Memphis Center
Sat 12:39:45 PM 35.7264 -87.8250 65° Northeast 434 499 39,000  Level Memphis Center
Sat 12:40:46 PM 35.7767 -87.6869 66° East 436 502 39,000  Level Memphis Center
Sat 12:41:48 PM 35.8361 -87.5267 65° Northeast 436 502 39,000  Level Memphis Center
Sat 12:42:50 PM 35.8861 -87.3881 66° East 436 502 39,000  Level Memphis Center
Sat 12:43:52 PM 35.9367 -87.2483 66° East 438 504 39,000  Level Memphis Center
Sat 12:44:53 PM 35.9856 -87.1103 66° East 438 504 39,000  Level Memphis Center
Sat 12:45:55 PM 36.0350 -86.9717 66° East 438 504 39,000  Level Memphis Center
Sat 12:46:57 PM 36.0836 -86.8317 67° East 439 505 39,000  Level Memphis Center
Sat 12:47:58 PM 36.1325 -86.6917 67° East 442 509 39,000 195 Level Memphis Center
Sat 12:49:00 PM 36.1878 -86.5267 67° East 443 510 39,400 732 Climbing Memphis Center
Sat 12:50:01 PM 36.2328 -86.3867 68° East 442 509 40,500 780 Climbing Memphis Center
Sat 12:51:03 PM 36.2783 -86.2453 68° East 440 506 41,000 242 Climbing Memphis Center
Sat 12:52:05 PM 36.3244 -86.1019 68° East 441 507 41,000  Level Memphis Center
Sat 12:53:06 PM 36.3706 -85.9567 68° East 445 512 41,000  Level Memphis Center
Sat 12:54:08 PM 36.4183 -85.8069 68° East 446 513 41,000  Level Memphis Center
Sat 12:55:10 PM 36.4633 -85.6653 68° East 442 509 41,000  Level Memphis Center
Sat 12:55:48 PM 36.4908 -85.5811 68° East 441 507 41,000  Level Indianapolis Center
Sat 12:56:49 PM 36.5344 -85.4389 69° East 441 507 41,000  Level Indianapolis Center
Sat 12:57:53 PM 36.5778 -85.2969 69° East 441 507 41,000  Level Indianapolis Center
Sat 12:58:54 PM 36.6225 -85.1531 69° East 441 507 41,000  Level Indianapolis Center
Sat 12:59:57 PM 36.6756 -84.9800 69° East 442 509 41,000  Level Indianapolis Center
Sat 01:00:58 PM 36.7208 -84.8361 69° East 442 509 41,000  Level Indianapolis Center
Sat 01:01:59 PM 36.7639 -84.6906 70° East 442 509 41,000  Level Indianapolis Center
Sat 01:03:00 PM 36.8089 -84.5447 69° East 444 511 41,000  Level Indianapolis Center
Sat 01:04:02 PM 36.8522 -84.3958 70° East 442 509 41,000  Level Indianapolis Center
Sat 01:05:07 PM 36.8964 -84.2536 69° East 442 509 41,000  Level Indianapolis Center
Sat 01:06:07 PM 36.9383 -84.1089 70° East 441 507 41,000  Level Indianapolis Center
Sat 01:07:08 PM 36.9817 -83.9647 69° East 442 509 41,000  Level Indianapolis Center
Sat 01:08:09 PM 37.0247 -83.8203 69° East 442 509 41,000  Level Indianapolis Center
Sat 01:09:13 PM 37.0733 -83.6531 70° East 441 507 41,000  Level Indianapolis Center
Sat 01:10:14 PM 37.1158 -83.5078 70° East 441 507 41,000  Level Indianapolis Center
Sat 01:11:14 PM 37.1581 -83.3647 70° East 440 506 41,000  Level Indianapolis Center
Sat 01:12:18 PM 37.1997 -83.2183 70° East 440 506 41,000  Level Indianapolis Center
Sat 01:13:18 PM 37.2433 -83.0711 70° East 441 507 41,000  Level Indianapolis Center
Sat 01:14:22 PM 37.2847 -82.9231 71° East 442 509 41,000  Level Indianapolis Center
Sat 01:15:23 PM 37.3278 -82.7739 70° East 445 512 41,000  Level Indianapolis Center
Sat 01:16:24 PM 37.3697 -82.6244 71° East 447 514 41,000  Level Indianapolis Center
Sat 01:17:27 PM 37.4186 -82.4503 70° East 447 514 41,000  Level Indianapolis Center
Sat 01:18:28 PM 37.4597 -82.3008 71° East 448 516 41,000  Level Indianapolis Center
Sat 01:19:31 PM 37.5014 -82.1506 71° East 449 517 41,000  Level Indianapolis Center
Sat 01:20:32 PM 37.5428 -82.0011 71° East 449 517 41,000  Level Indianapolis Center
Sat 01:21:33 PM 37.5836 -81.8519 71° East 449 517 41,000  Level Indianapolis Center
Sat 01:22:36 PM 37.6244 -81.7031 71° East 449 517 41,000 -290 Level Indianapolis Center
Sat 01:23:37 PM 37.6636 -81.5561 71° East 447 514 40,400 -984 Descending Indianapolis Center
Sat 01:24:38 PM 37.7047 -81.4014 71° East 446 513 39,000 -677 Descending Indianapolis Center
Sat 01:25:41 PM 37.7442 -81.2553 71° East 447 514 39,000  Level Indianapolis Center
Sat 01:26:42 PM 37.7881 -81.0794 72° East 447 514 39,000  Level Indianapolis Center
Sat 01:27:42 PM 37.8022 -80.9322 83° East 437 503 39,000  Level Indianapolis Center
Sat 01:28:46 PM 37.8189 -80.7881 82° East 438 504 39,000  Level Indianapolis Center
Sat 01:29:46 PM 37.8564 -80.6025 76° East 456 525 39,000  Level Indianapolis Center
Sat 01:30:40 PM 37.8919 -80.4864 69° East 448 516 39,000  Level Washington Center
Sat 01:31:41 PM 37.9397 -80.3342 68° East 453 521 39,000  Level Washington Center
Sat 01:32:41 PM 37.9856 -80.1789 69° East 459 528 39,000  Level Washington Center
Sat 01:33:41 PM 38.0331 -80.0236 69° East 464 534 39,000  Level Washington Center
Sat 01:34:39 PM 38.0850 -79.8525 69° East 464 534 39,000  Level Washington Center
Sat 01:35:39 PM 38.1303 -79.6939 70° East 464 534 39,000 -496 Level Washington Center
Sat 01:36:40 PM 38.1753 -79.5353 70° East 464 534 38,000 -1,820 Descending Washington Center
Sat 01:37:41 PM 38.2219 -79.3767 69° East 469 540 35,300 -2,874 Descending Washington Center
Sat 01:38:39 PM 38.2667 -79.2175 70° East 475 547 32,300 -2,746 Descending Washington Center
Sat 01:39:39 PM 38.3083 -79.0767 69° East 481 554 29,900 -2,331 Descending Washington Center
Sat 01:40:40 PM 38.3522 -78.9225 70° East 471 542 27,600 -1,438 Descending Washington Center
Sat 01:41:40 PM 38.3897 -78.7731 72° East 459 528 27,000 -298 Descending Washington Center
Sat 01:42:41 PM 38.4308 -78.6317 70° East 435 501 27,000  Level Washington Center
Sat 01:43:39 PM 38.4700 -78.4822 71° East 429 494 27,000 -153 Level Washington Center
Sat 01:44:39 PM 38.5089 -78.3378 71° East 429 494 26,700 -1,289 Descending Washington Center
Sat 01:45:40 PM 38.5494 -78.1958 70° East 429 494 24,400 -2,281 Descending Washington Center
Sat 01:46:40 PM 38.5881 -78.0564 70° East 417 480 22,100 -2,182 Descending Washington Center
Sat 01:47:41 PM 38.6239 -77.9275 70° East 402 463 20,000 -1,525 Descending Washington Center
Sat 01:48:42 PM 38.6472 -77.7981 77° East 382 440 19,000 -508 Descending Washington Center
Sat 01:49:39 PM 38.6539 -77.6519 87° East 371 427 19,000 -330 Level Washington Center
Sat 01:50:31 PM 38.6667 -77.5333 82° East 372 428 18,400 -1,393 Descending Potomac TRACON
Sat 01:51:31 PM 38.6667 -77.4167 90° East 363 418 16,400 -1,200 Descending Potomac TRACON
Sat 01:52:31 PM 38.6833 -77.2833 81° East 350 403 16,000 -1,000 Descending Potomac TRACON
Sat 01:53:31 PM 38.6833 -77.1667 90° East 339 390 14,400 -1,850 Descending Potomac TRACON
Sat 01:54:31 PM 38.6833 -77.0333 90° East 336 387 12,300 -1,884 Descending Potomac TRACON
Sat 01:55:32 PM 38.7000 -76.9333 78° East 323 372 10,600 -1,200 Descending Potomac TRACON
Sat 01:56:26 PM 38.7000 -76.8333 90° East 312 359 10,000 -842 Descending Potomac TRACON
Sat 01:57:26 PM 38.7167 -76.7333 78° East 282 325 9,000 -1,041 Descending Potomac TRACON
Sat 01:58:27 PM 38.7500 -76.6500 63° Northeast 259 298 7,900 -1,190 Descending Potomac TRACON
Sat 01:59:27 PM 38.7833 -76.5667 63° Northeast 260 299 6,600 -942 Descending Potomac TRACON
Sat 02:00:28 PM 38.8333 -76.5333 27° Northeast 250 288 6,000 -893 Descending Potomac TRACON
Sat 02:01:28 PM 38.9000 -76.5500 349° North 246 283 4,800 -1,053 Descending Potomac TRACON
Sat 02:02:22 PM 38.9667 -76.5667 349° North 231 266 4,000 -800 Descending Potomac TRACON
Sat 02:03:28 PM 39.0167 -76.5833 345° North 202 232 3,200 -857 Descending Potomac TRACON
Sat 02:04:28 PM 39.0667 -76.6000 345° North 183 211 2,200 -900 Descending Potomac TRACON
Sat 02:05:28 PM 39.1167 -76.6167 346° North 150 173 1,400 -800 Descending Potomac TRACON
Sat 02:06:28 PM 39.1500 -76.6500 322° Northwest 135 155 600 12,200 Descending Potomac TRACON
Sat 02:07:28 PM 39.6333 -76.5833 North 378 435 25,800 12,595 Climbing Potomac TRACON
Sat 02:08:29 PM 39.5833 -76.7167 244° Southwest 413 475 26,000 99 Climbing Potomac TRACON
Sat 02:09:29 PM 39.5500 -76.8500 252° West 414 476 26,000  Level Potomac TRACON
Sat 02:10:29 PM 39.5000 -76.9667 241° Southwest 414 476 26,000  Level Potomac TRACON
Sat 02:11:23 PM 39.4167 -77.0667 223° Southwest 424 488 26,000  Level Potomac TRACON
Sat 02:12:23 PM 39.3167 -77.1667 218° Southwest 424 488 26,000  Level Potomac TRACON
Sat 02:13:24 PM 39.2333 -77.2500 218° Southwest 406 467 26,000  Level Potomac TRACON
Sat 02:14:29 PM 39.1333 -77.3500 218° Southwest 397 457 26,000  Level Potomac TRACON
Sat 02:15:24 PM 39.0500 -77.4333 218° Southwest 379 436 26,000  Level Potomac TRACON
Sat 02:16:24 PM 38.9667 -77.5333 223° Southwest 424 488 26,000  Level Potomac TRACON
Sat 02:17:24 PM 38.8667 -77.6333 218° Southwest 378 435 26,000  Level Potomac TRACON
Sat 02:18:30 PM 38.7833 -77.7333 223° Southwest 402 463 26,000  Level Potomac TRACON
Sat 02:19:30 PM 38.6833 -77.8167 213° Southwest 412 474 26,000  Level Potomac TRACON
Sat 02:20:30 PM 38.6000 -77.9333 228° Southwest 413 475 26,000  Level Potomac TRACON
Sat 02:22:30 PM 38.4667 -78.1667 234° Southwest 410 472 26,000  Level Potomac TRACON
Sat 02:23:30 PM 38.4000 -78.2833 234° Southwest 413 475 26,000  Level Potomac TRACON
Sat 02:24:30 PM 38.3333 -78.4000 234° Southwest 415 478 26,000  Level Potomac TRACON
Sat 02:25:30 PM 38.2500 -78.5167 228° Southwest 491 565 26,000  Level Potomac TRACON
Sat 02:26:31 PM 38.1833 -78.6333 234° Southwest 426 490 26,000  Level Potomac TRACON
Sat 02:27:31 PM 38.1167 -78.7500 234° Southwest 415 478 26,000  Level Potomac TRACON
Sat 02:28:31 PM 38.0333 -78.8667 228° Southwest 417 480 26,000  Level Potomac TRACON
Sat 02:29:31 PM 37.9667 -79.0000 238° Southwest 425 489 26,000  Level Potomac TRACON
Sat 02:30:32 PM 37.9000 -79.1167 234° Southwest 425 489 26,000  Level Potomac TRACON
Sat 02:31:32 PM 37.8333 -79.2333 234° Southwest 424 488 26,000  Level Potomac TRACON
Sat 02:32:26 PM 37.7833 -79.3500 242° Southwest 422 486 26,000  Level Potomac TRACON
Sat 02:33:26 PM 37.7167 -79.4667 234° Southwest 423 487 26,000  Level Potomac TRACON
Sat 02:34:33 PM 37.6500 -79.6167 241° Southwest 440 506 26,000  Level Potomac TRACON
Sat 02:35:33 PM 37.6000 -79.7333 242° Southwest 421 484 26,000  Level Potomac TRACON
Sat 02:36:33 PM 37.5333 -79.8500 234° Southwest 425 489 26,000  Level Potomac TRACON
Sat 02:37:27 PM 37.4667 -79.9833 238° Southwest 420 483 26,000  Level Potomac TRACON
Sat 02:38:27 PM 37.4000 -80.1000 234° Southwest 408 470 26,000  Level Potomac TRACON
Sat 02:39:28 PM 37.3500 -80.2167 242° Southwest 405 466 26,000  Level Potomac TRACON
Sat 02:40:28 PM 37.2833 -80.3333 234° Southwest 404 465 26,000  Level Potomac TRACON
Sat 02:41:28 PM 37.2167 -80.4500 234° Southwest 404 465 26,000  Level Potomac TRACON
Sat 02:42:34 PM 37.1667 -80.5500 238° Southwest 404 465 26,000  Level Potomac TRACON
Sat 02:44:00 PM 37.2547 -80.3891 55° Northeast  Level Estimated
Sat 02:51:00 PM 37.6814 -79.5981 56° Northeast  Level Estimated
Sat 02:52:00 PM 37.7420 -79.4844 56° Northeast  Level Estimated
Sat 02:53:00 PM 37.8024 -79.3705 56° Northeast  Level Estimated
Sat 02:54:00 PM 37.8627 -79.2563 56° Northeast  Level Estimated
Sat 02:55:00 PM 37.9229 -79.1420 56° Northeast  Level Estimated
Sat 02:56:00 PM 37.9830 -79.0276 56° Northeast  Level Estimated
Sat 02:57:00 PM 38.0430 -78.9129 56° Northeast  Level Estimated
Sat 02:58:00 PM 38.1029 -78.7980 56° Northeast  Level Estimated
Sat 02:59:00 PM 38.1626 -78.6830 57° Northeast  Level Estimated
Sat 03:00:00 PM 38.2223 -78.5677 57° Northeast  Level Estimated
Sat 03:01:00 PM 38.2818 -78.4523 57° Northeast  Level Estimated
Sat 03:02:00 PM 38.3412 -78.3367 57° Northeast  Level Estimated
Sat 03:03:00 PM 38.4005 -78.2209 57° Northeast  Level Estimated
Sat 03:04:00 PM 38.4597 -78.1049 57° Northeast  Level Estimated
Sat 03:05:00 PM 38.5188 -77.9887 76° East  Level Estimated
Sat 03:06:00 PM 38.5777 -77.8723 72° East  Level Estimated
Sat 03:07:00 PM 38.6333 -77.7492 90° East  Level FlightAware Approximate
Sat 03:08:00 PM 38.6501 -77.6166 90° East  Level FlightAware Approximate
Sat 03:09:00 PM 38.6500 -77.4777 90° East  Level FlightAware Approximate
Sat 03:10:00 PM 38.6667 -77.3415 90° East  Level FlightAware Approximate
Sat 03:11:00 PM 38.6667 -77.2026 90° East  Level FlightAware Approximate
Sat 03:12:00 PM 38.6780 -77.0648 82° East  Level FlightAware Approximate
Sat 03:13:00 PM 38.6833 -76.9263 90° East  Level FlightAware Approximate
Sat 03:14:00 PM 38.6963 -76.7891 78° East  Level FlightAware Approximate
Sat 03:15:00 PM 38.7301 -76.6609 52° Northeast  Level FlightAware Approximate
Sat 03:16:00 PM 38.7815 -76.5407 72° East  Level FlightAware Approximate
Sat 03:17:00 PM 38.8762 -76.5524 349° North  Level FlightAware Approximate
Sat 03:18:00 PM 38.9787 -76.5873 345° North  Level FlightAware Approximate

Login

Don't have an account? Register now (free) for customized features, flight alerts, and more!